Time,TemperatureF,DewpointF,PressureIn,WindDirection,WindDirectionDegrees,WindSpeedMPH,WindSpeedGustMPH,Humidity,HourlyPrecipIn,Conditions,Clouds,dailyrainin,SoftwareType,DateUTC
2013-02-15 00:01:00,19.0,13.0,-100.00,North,0,0.0,2.0,77,-99.99,,,-99.99,,2013-02-15 07:01:00,
2013-02-15 00:11:00,16.0,10.0,-100.00,East,80,6.0,6.0,76,-99.99,,,-99.99,,2013-02-15 07:11:00,
2013-02-15 00:21:00,16.0,11.0,-100.00,ENE,68,2.0,6.0,79,-99.99,,,-99.99,,2013-02-15 07:21:00,
2013-02-15 00:31:00,16.0,11.0,-100.00,ENE,68,2.0,6.0,79,-99.99,,,-99.99,,2013-02-15 07:31:00,
2013-02-15 00:41:00,16.0,11.0,-100.00,ENE,68,2.0,6.0,79,-99.99,,,-99.99,,2013-02-15 07:41:00,
2013-02-15 00:52:00,18.0,13.0,-100.00,ENE,68,2.0,3.0,79,-99.99,,,-99.99,,2013-02-15 07:52:00,
2013-02-15 01:01:00,18.0,13.0,-100.00,ENE,68,2.0,3.0,79,-99.99,,,-99.99,,2013-02-15 08:01:00,
2013-02-15 01:11:00,19.0,14.0,-100.00,East,81,4.0,5.0,78,-99.99,,,-99.99,,2013-02-15 08:11:00,
2013-02-15 01:21:00,19.0,14.0,-100.00,East,81,4.0,5.0,78,-99.99,,,-99.99,,2013-02-15 08:21:00,
2013-02-15 01:31:00,19.0,14.0,-100.00,East,81,4.0,5.0,78,-99.99,,,-99.99,,2013-02-15 08:31:00,
2013-02-15 01:41:00,20.0,14.0,-100.00,East,87,4.0,4.0,76,-99.99,,,-99.99,,2013-02-15 08:41:00,
2013-02-15 01:52:00,20.0,14.0,-100.00,ESE,103,5.0,5.0,75,-99.99,,,-99.99,,2013-02-15 08:52:00,
2013-02-15 02:01:00,20.0,14.0,-100.00,SE,141,3.0,5.0,77,-99.99,,,-99.99,,2013-02-15 09:01:00,
2013-02-15 02:12:00,19.0,14.0,-100.00,SSE,147,0.0,4.0,78,-99.99,,,-99.99,,2013-02-15 09:12:00,
2013-02-15 02:21:00,19.0,14.0,-100.00,SSE,147,0.0,4.0,78,-99.99,,,-99.99,,2013-02-15 09:21:00,
2013-02-15 02:31:00,19.0,14.0,-100.00,ESE,107,2.0,3.0,78,-99.99,,,-99.99,,2013-02-15 09:31:00,
2013-02-15 02:41:00,19.0,14.0,-100.00,ESE,107,2.0,3.0,78,-99.99,,,-99.99,,2013-02-15 09:41:00,
2013-02-15 02:51:00,19.0,14.0,-100.00,East,88,4.0,5.0,79,-99.99,,,-99.99,,2013-02-15 09:51:00,
2013-02-15 03:01:00,19.0,14.0,-100.00,East,84,3.0,4.0,79,-99.99,,,-99.99,,2013-02-15 10:01:00,
2013-02-15 03:11:00,19.0,14.0,-100.00,ESE,106,1.0,3.0,80,-99.99,,,-99.99,,2013-02-15 10:11:00,
2013-02-15 03:21:00,19.0,14.0,-100.00,ESE,106,1.0,3.0,80,-99.99,,,-99.99,,2013-02-15 10:21:00,
2013-02-15 03:31:00,19.0,14.0,-100.00,East,92,1.0,4.0,80,-99.99,,,-99.99,,2013-02-15 10:31:00,
2013-02-15 03:41:00,19.0,14.0,-100.00,East,92,1.0,4.0,80,-99.99,,,-99.99,,2013-02-15 10:41:00,
2013-02-15 03:51:00,19.0,14.0,-100.00,East,83,0.0,3.0,80,-99.99,,,-99.99,,2013-02-15 10:51:00,
2013-02-15 04:01:00,19.0,14.0,-100.00,East,83,0.0,3.0,80,-99.99,,,-99.99,,2013-02-15 11:01:00,
2013-02-15 04:11:00,20.0,15.0,-100.00,SSE,159,1.0,2.0,80,-99.99,,,-99.99,,2013-02-15 11:11:00,
2013-02-15 04:22:00,20.0,15.0,-100.00,SSE,159,1.0,2.0,80,-99.99,,,-99.99,,2013-02-15 11:22:00,
2013-02-15 04:31:00,19.0,14.0,-100.00,NE,42,2.0,2.0,81,-99.99,,,-99.99,,2013-02-15 11:31:00,
2013-02-15 04:42:00,19.0,14.0,-100.00,NE,42,2.0,2.0,81,-99.99,,,-99.99,,2013-02-15 11:42:00,
2013-02-15 04:52:00,19.0,14.0,-100.00,NE,47,2.0,2.0,81,-99.99,,,-99.99,,2013-02-15 11:52:00,
2013-02-15 05:01:00,19.0,15.0,-100.00,NE,47,2.0,2.0,81,-99.99,,,-99.99,,2013-02-15 12:01:00,
2013-02-15 05:11:00,19.0,14.0,-100.00,ENE,78,3.0,4.0,81,-99.99,,,-99.99,,2013-02-15 12:11:00,
2013-02-15 05:21:00,19.0,14.0,-100.00,ENE,78,3.0,4.0,81,-99.99,,,-99.99,,2013-02-15 12:21:00,
2013-02-15 05:31:00,19.0,14.0,-100.00,ENE,74,0.0,2.0,81,-99.99,,,-99.99,,2013-02-15 12:31:00,
2013-02-15 05:42:00,19.0,15.0,-100.00,ENE,68,2.0,3.0,81,-99.99,,,-99.99,,2013-02-15 12:42:00,
2013-02-15 05:52:00,19.0,15.0,-100.00,ENE,68,2.0,3.0,81,-99.99,,,-99.99,,2013-02-15 12:52:00,
2013-02-15 06:02:00,19.0,15.0,-100.00,East,97,3.0,4.0,81,-99.99,,,-99.99,,2013-02-15 13:02:00,
2013-02-15 06:11:00,20.0,15.0,-100.00,East,100,2.0,3.0,81,-99.99,,,-99.99,,2013-02-15 13:11:00,
2013-02-15 06:21:00,20.0,15.0,-100.00,East,100,2.0,3.0,81,-99.99,,,-99.99,,2013-02-15 13:21:00,
2013-02-15 06:31:00,20.0,15.0,-100.00,ENE,69,2.0,3.0,81,-99.99,,,-99.99,,2013-02-15 13:31:00,
2013-02-15 06:41:00,20.0,15.0,-100.00,ENE,69,2.0,3.0,81,-99.99,,,-99.99,,2013-02-15 13:41:00,
2013-02-15 06:51:00,20.0,15.0,-100.00,East,94,4.0,5.0,80,-99.99,,,-99.99,,2013-02-15 13:51:00,
2013-02-15 07:01:00,20.0,16.0,-100.00,ENE,58,3.0,4.0,81,-99.99,,,-99.99,,2013-02-15 14:01:00,
2013-02-15 07:11:00,21.0,17.0,-100.00,East,92,2.0,5.0,81,-99.99,,,-99.99,,2013-02-15 14:11:00,
2013-02-15 07:21:00,21.0,17.0,-100.00,East,92,2.0,5.0,81,-99.99,,,-99.99,,2013-02-15 14:21:00,
2013-02-15 07:32:00,22.0,17.0,-100.00,ESE,119,5.0,6.0,80,-99.99,,,-99.99,,2013-02-15 14:32:00,
2013-02-15 07:41:00,22.0,17.0,-100.00,ESE,118,3.0,5.0,80,-99.99,,,-99.99,,2013-02-15 14:41:00,
2013-02-15 07:52:00,22.0,17.0,-100.00,ESE,118,3.0,5.0,80,-99.99,,,-99.99,,2013-02-15 14:52:00,
2013-02-15 08:01:00,23.0,17.0,-100.00,NW,321,0.0,3.0,79,-99.99,,,-99.99,,2013-02-15 15:01:00,
2013-02-15 08:11:00,22.0,17.0,-100.00,SSE,155,5.0,6.0,79,-99.99,,,-99.99,,2013-02-15 15:11:00,
2013-02-15 08:21:00,22.0,17.0,-100.00,SSE,155,5.0,6.0,79,-99.99,,,-99.99,,2013-02-15 15:21:00,
2013-02-15 08:32:00,23.0,17.0,-100.00,SE,137,2.0,4.0,78,-99.99,,,-99.99,,2013-02-15 15:32:00,
2013-02-15 08:41:00,23.0,17.0,-100.00,ESE,106,3.0,5.0,78,-99.99,,,-99.99,,2013-02-15 15:41:00,
2013-02-15 08:51:00,23.0,17.0,-100.00,ESE,106,3.0,5.0,78,-99.99,,,-99.99,,2013-02-15 15:51:00,
2013-02-15 09:01:00,22.0,17.0,-100.00,East,93,4.0,7.0,79,-99.99,,,-99.99,,2013-02-15 16:01:00,
2013-02-15 09:11:00,23.0,17.0,-100.00,East,89,3.0,6.0,79,-99.99,,,-99.99,,2013-02-15 16:11:00,
2013-02-15 09:21:00,23.0,17.0,-100.00,East,89,3.0,6.0,79,-99.99,,,-99.99,,2013-02-15 16:21:00,
2013-02-15 09:31:00,24.0,18.0,-100.00,ESE,111,4.0,5.0,77,-99.99,,,-99.99,,2013-02-15 16:31:00,
2013-02-15 09:42:00,24.0,18.0,-100.00,East,96,3.0,5.0,76,-99.99,,,-99.99,,2013-02-15 16:42:00,
2013-02-15 09:51:00,24.0,18.0,-100.00,East,96,3.0,5.0,76,-99.99,,,-99.99,,2013-02-15 16:51:00,
2013-02-15 10:01:00,26.0,19.0,-100.00,ESE,103,4.0,4.0,74,-99.99,,,-99.99,,2013-02-15 17:01:00,
2013-02-15 10:11:00,27.0,19.0,-100.00,East,90,4.0,5.0,71,-99.99,,,-99.99,,2013-02-15 17:11:00,
2013-02-15 10:21:00,27.0,19.0,-100.00,East,90,4.0,5.0,71,-99.99,,,-99.99,,2013-02-15 17:21:00,
2013-02-15 10:32:00,28.0,20.0,-100.00,East,100,4.0,6.0,69,-99.99,,,-99.99,,2013-02-15 17:32:00,
2013-02-15 10:41:00,30.0,22.0,-100.00,SE,144,2.0,4.0,69,-99.99,,,-99.99,,2013-02-15 17:41:00,
2013-02-15 10:52:00,30.0,22.0,-100.00,SE,144,2.0,4.0,69,-99.99,,,-99.99,,2013-02-15 17:52:00,
2013-02-15 11:01:00,33.0,22.0,-100.00,WNW,284,0.0,6.0,61,-99.99,,,-99.99,,2013-02-15 18:01:00,
2013-02-15 11:11:00,32.0,19.0,-100.00,WNW,285,6.0,8.0,57,-99.99,,,-99.99,,2013-02-15 18:11:00,
2013-02-15 11:21:00,32.0,19.0,-100.00,WNW,285,6.0,8.0,57,-99.99,,,-99.99,,2013-02-15 18:21:00,
2013-02-15 11:31:00,32.0,18.0,-100.00,WNW,282,9.0,13.0,55,-99.99,,,-99.99,,2013-02-15 18:31:00,
2013-02-15 11:41:00,32.0,18.0,-100.00,WNW,282,9.0,13.0,55,-99.99,,,-99.99,,2013-02-15 18:41:00,
2013-02-15 11:52:00,33.0,19.0,-100.00,West,276,6.0,11.0,55,-99.99,,,-99.99,,2013-02-15 18:52:00,
2013-02-15 12:01:00,33.0,19.0,-100.00,West,276,6.0,11.0,55,-99.99,,,-99.99,,2013-02-15 19:01:00,
2013-02-15 12:11:00,33.0,18.0,-100.00,WNW,287,9.0,16.0,53,-99.99,,,-99.99,,2013-02-15 19:11:00,
2013-02-15 12:21:00,33.0,18.0,-100.00,WNW,287,9.0,16.0,53,-99.99,,,-99.99,,2013-02-15 19:21:00,
2013-02-15 12:32:00,34.0,18.0,-100.00,West,281,14.0,16.0,53,-99.99,,,-99.99,,2013-02-15 19:32:00,
2013-02-15 12:41:00,34.0,18.0,-100.00,West,281,14.0,16.0,53,-99.99,,,-99.99,,2013-02-15 19:41:00,
2013-02-15 12:51:00,34.0,19.0,-100.00,WNW,294,11.0,15.0,53,-99.99,,,-99.99,,2013-02-15 19:51:00,
2013-02-15 13:01:00,34.0,18.0,-100.00,NW,304,10.0,14.0,52,-99.99,,,-99.99,,2013-02-15 20:01:00,
2013-02-15 13:11:00,34.0,19.0,-100.00,West,279,13.0,15.0,53,-99.99,,,-99.99,,2013-02-15 20:11:00,
2013-02-15 13:21:00,34.0,19.0,-100.00,West,279,13.0,15.0,53,-99.99,,,-99.99,,2013-02-15 20:21:00,
2013-02-15 13:32:00,34.0,19.0,-100.00,West,280,14.0,17.0,54,-99.99,,,-99.99,,2013-02-15 20:32:00,
2013-02-15 13:42:00,34.0,20.0,-100.00,WNW,289,15.0,18.0,55,-99.99,,,-99.99,,2013-02-15 20:42:00,
2013-02-15 13:52:00,34.0,20.0,-100.00,WNW,291,17.0,21.0,56,-99.99,,,-99.99,,2013-02-15 20:52:00,
2013-02-15 14:01:00,34.0,20.0,-100.00,WNW,286,13.0,19.0,56,-99.99,,,-99.99,,2013-02-15 21:01:00,
2013-02-15 14:11:00,34.0,20.0,-100.00,WNW,284,15.0,19.0,56,-99.99,,,-99.99,,2013-02-15 21:11:00,
2013-02-15 14:21:00,34.0,20.0,-100.00,WNW,284,15.0,19.0,56,-99.99,,,-99.99,,2013-02-15 21:21:00,
2013-02-15 14:30:00,34.0,21.0,-100.00,WNW,293,14.0,18.0,58,-99.99,,,-99.99,,2013-02-15 21:30:00,
2013-02-15 14:31:00,34.0,20.0,-100.00,West,280,16.0,20.0,57,-99.99,,,-99.99,,2013-02-15 21:31:00,
2013-02-15 14:42:00,34.0,20.0,-100.00,WNW,288,16.0,18.0,57,-99.99,,,-99.99,,2013-02-15 21:42:00,
2013-02-15 14:51:00,34.0,20.0,-100.00,WNW,288,16.0,18.0,57,-99.99,,,-99.99,,2013-02-15 21:51:00,
2013-02-15 15:02:00,34.0,21.0,-100.00,WNW,293,14.0,18.0,58,-99.99,,,-99.99,,2013-02-15 22:02:00,
2013-02-15 15:11:00,34.0,21.0,-100.00,WNW,293,14.0,18.0,58,-99.99,,,-99.99,,2013-02-15 22:11:00,
2013-02-15 15:21:00,34.0,21.0,-100.00,WNW,293,14.0,18.0,58,-99.99,,,-99.99,,2013-02-15 22:21:00,
2013-02-15 15:42:00,35.0,21.0,-100.00,West,279,11.0,14.0,56,-99.99,,,-99.99,,2013-02-15 22:42:00,
2013-02-15 15:52:00,35.0,21.0,-100.00,WNW,288,12.0,14.0,56,-99.99,,,-99.99,,2013-02-15 22:52:00,
2013-02-15 16:02:00,35.0,20.0,-100.00,WNW,287,13.0,17.0,53,-99.99,,,-99.99,,2013-02-15 23:02:00,
2013-02-15 16:11:00,35.0,21.0,-100.00,WNW,287,10.0,16.0,54,-99.99,,,-99.99,,2013-02-15 23:11:00,
2013-02-15 16:21:00,35.0,21.0,-100.00,WNW,287,10.0,16.0,54,-99.99,,,-99.99,,2013-02-15 23:21:00,
2013-02-15 16:31:00,35.0,20.0,-100.00,West,281,13.0,16.0,54,-99.99,,,-99.99,,2013-02-15 23:31:00,
2013-02-15 16:41:00,35.0,21.0,-100.00,West,280,14.0,16.0,56,-99.99,,,-99.99,,2013-02-15 23:41:00,
2013-02-15 16:52:00,35.0,21.0,-100.00,West,280,14.0,16.0,56,-99.99,,,-99.99,,2013-02-15 23:52:00,
2013-02-15 17:02:00,35.0,21.0,-100.00,WNW,291,11.0,14.0,57,-99.99,,,-99.99,,2013-02-16 00:02:00,
2013-02-15 17:11:00,34.0,21.0,-100.00,West,279,12.0,13.0,58,-99.99,,,-99.99,,2013-02-16 00:11:00,
2013-02-15 17:21:00,34.0,21.0,-100.00,West,279,12.0,13.0,58,-99.99,,,-99.99,,2013-02-16 00:21:00,
2013-02-15 17:31:00,33.0,21.0,-100.00,WNW,295,14.0,16.0,61,-99.99,,,-99.99,,2013-02-16 00:31:00,
2013-02-15 17:41:00,32.0,21.0,-100.00,NW,305,12.0,18.0,62,-99.99,,,-99.99,,2013-02-16 00:41:00,
2013-02-15 17:51:00,32.0,21.0,-100.00,NW,305,12.0,18.0,62,-99.99,,,-99.99,,2013-02-16 00:51:00,
2013-02-15 18:02:00,32.0,21.0,-100.00,NW,305,12.0,18.0,62,-99.99,,,-99.99,,2013-02-16 01:02:00,
2013-02-15 18:11:00,31.0,21.0,-100.00,WNW,298,12.0,18.0,65,-99.99,,,-99.99,,2013-02-16 01:11:00,
2013-02-15 18:21:00,31.0,21.0,-100.00,WNW,298,12.0,18.0,65,-99.99,,,-99.99,,2013-02-16 01:21:00,
2013-02-15 18:31:00,31.0,21.0,-100.00,WNW,298,12.0,18.0,65,-99.99,,,-99.99,,2013-02-16 01:31:00,
2013-02-15 18:41:00,30.0,20.0,-100.00,WNW,295,14.0,20.0,65,-99.99,,,-99.99,,2013-02-16 01:41:00,
2013-02-15 18:51:00,30.0,20.0,-100.00,WNW,294,12.0,15.0,67,-99.99,,,-99.99,,2013-02-16 01:51:00,
2013-02-15 19:01:00,29.0,20.0,-100.00,WNW,295,10.0,12.0,69,-99.99,,,-99.99,,2013-02-16 02:01:00,
2013-02-15 19:11:00,29.0,20.0,-100.00,WNW,291,9.0,11.0,69,-99.99,,,-99.99,,2013-02-16 02:11:00,
2013-02-15 19:21:00,29.0,20.0,-100.00,WNW,291,9.0,11.0,69,-99.99,,,-99.99,,2013-02-16 02:21:00,
2013-02-15 19:31:00,29.0,20.0,-100.00,WNW,296,12.0,13.0,69,-99.99,,,-99.99,,2013-02-16 02:31:00,
2013-02-15 19:42:00,29.0,20.0,-100.00,WNW,295,10.0,14.0,69,-99.99,,,-99.99,,2013-02-16 02:42:00,
2013-02-15 19:51:00,28.0,20.0,-100.00,WNW,294,12.0,15.0,69,-99.99,,,-99.99,,2013-02-16 02:51:00,
2013-02-15 20:01:00,28.0,20.0,-100.00,WNW,285,12.0,16.0,70,-99.99,,,-99.99,,2013-02-16 03:01:00,
2013-02-15 20:11:00,27.0,19.0,-100.00,WSW,256,9.0,14.0,71,-99.99,,,-99.99,,2013-02-16 03:11:00,
2013-02-15 20:21:00,27.0,19.0,-100.00,WSW,256,9.0,14.0,71,-99.99,,,-99.99,,2013-02-16 03:21:00,
2013-02-15 20:31:00,27.0,19.0,-100.00,WSW,248,5.0,7.0,71,-99.99,,,-99.99,,2013-02-16 03:31:00,
2013-02-15 20:41:00,27.0,19.0,-100.00,WSW,249,6.0,9.0,71,-99.99,,,-99.99,,2013-02-16 03:41:00,
2013-02-15 20:52:00,27.0,19.0,-100.00,WSW,249,6.0,9.0,71,-99.99,,,-99.99,,2013-02-16 03:52:00,
2013-02-15 21:01:00,25.0,18.0,-100.00,West,281,6.0,6.0,72,-99.99,,,-99.99,,2013-02-16 04:01:00,
2013-02-15 21:11:00,25.0,18.0,-100.00,West,270,3.0,7.0,74,-99.99,,,-99.99,,2013-02-16 04:11:00,
2013-02-15 21:21:00,25.0,18.0,-100.00,West,270,3.0,7.0,74,-99.99,,,-99.99,,2013-02-16 04:21:00,
2013-02-15 21:31:00,24.0,17.0,-100.00,West,276,4.0,4.0,72,-99.99,,,-99.99,,2013-02-16 04:31:00,
2013-02-15 21:41:00,24.0,17.0,-100.00,WNW,300,2.0,4.0,74,-99.99,,,-99.99,,2013-02-16 04:41:00,
2013-02-15 21:51:00,24.0,17.0,-100.00,WNW,300,2.0,4.0,74,-99.99,,,-99.99,,2013-02-16 04:51:00,
2013-02-15 22:01:00,22.0,16.0,-100.00,West,268,5.0,6.0,75,-99.99,,,-99.99,,2013-02-16 05:01:00,
2013-02-15 22:11:00,22.0,16.0,-100.00,West,266,5.0,5.0,76,-99.99,,,-99.99,,2013-02-16 05:11:00,
2013-02-15 22:21:00,22.0,16.0,-100.00,West,266,5.0,5.0,76,-99.99,,,-99.99,,2013-02-16 05:21:00,
2013-02-15 22:31:00,22.0,15.0,-100.00,West,281,2.0,5.0,76,-99.99,,,-99.99,,2013-02-16 05:31:00,
2013-02-15 22:42:00,20.0,14.0,-100.00,North,0,0.0,2.0,76,-99.99,,,-99.99,,2013-02-16 05:42:00,
2013-02-15 22:52:00,20.0,14.0,-100.00,North,0,0.0,2.0,76,-99.99,,,-99.99,,2013-02-16 05:52:00,
2013-02-15 23:01:00,19.0,13.0,-100.00,North,0,0.0,1.0,77,-99.99,,,-99.99,,2013-02-16 06:01:00,
2013-02-15 23:11:00,19.0,13.0,-100.00,North,0,0.0,1.0,77,-99.99,,,-99.99,,2013-02-16 06:11:00,
2013-02-15 23:21:00,18.0,13.0,-100.00,NNE,32,2.0,3.0,78,-99.99,,,-99.99,,2013-02-16 06:21:00,
2013-02-15 23:32:00,18.0,13.0,-100.00,NNE,32,2.0,3.0,78,-99.99,,,-99.99,,2013-02-16 06:32:00,
2013-02-15 23:41:00,18.0,13.0,-100.00,NNE,32,2.0,3.0,78,-99.99,,,-99.99,,2013-02-16 06:41:00,
2013-02-15 23:51:00,19.0,13.0,-100.00,ESE,109,3.0,3.0,78,-99.99,,,-99.99,,2013-02-16 06:51:00,